sensor_id;sensor_type;location;lat;lon;timestamp;pressure;altitude;pressure_sealevel;temperature;humidity
50774;BME280;36745;48.544;8.918;2022-09-14T00:00:31;96500.88;;;18.71;79.86
50774;BME280;36745;48.544;8.918;2022-09-14T00:03:55;96488.19;;;18.70;80.13
50774;BME280;36745;48.544;8.918;2022-09-14T00:07:16;96488.44;;;18.72;79.77
50774;BME280;36745;48.544;8.918;2022-09-14T00:10:39;96471.91;;;18.74;80.18
50774;BME280;36745;48.544;8.918;2022-09-14T00:14:02;96470.41;;;18.73;80.88
50774;BME280;36745;48.544;8.918;2022-09-14T00:17:23;96472.97;;;18.71;81.46
50774;BME280;36745;48.544;8.918;2022-09-14T00:20:44;96462.81;;;18.68;81.08
50774;BME280;36745;48.544;8.918;2022-09-14T00:24:06;96461.31;;;18.67;80.93
50774;BME280;36745;48.544;8.918;2022-09-14T00:27:27;96447.09;;;18.65;81.28
50774;BME280;36745;48.544;8.918;2022-09-14T00:30:48;96443.03;;;18.66;81.39
50774;BME280;36745;48.544;8.918;2022-09-14T00:34:13;96433.41;;;18.67;81.73
50774;BME280;36745;48.544;8.918;2022-09-14T00:37:35;96426.03;;;18.64;81.91
50774;BME280;36745;48.544;8.918;2022-09-14T00:40:58;96413.34;;;18.63;81.62
50774;BME280;36745;48.544;8.918;2022-09-14T00:47:41;96435.94;;;18.65;81.69
50774;BME280;36745;48.544;8.918;2022-09-14T00:51:03;96437.19;;;18.64;81.99
50774;BME280;36745;48.544;8.918;2022-09-14T00:54:25;96433.13;;;18.65;82.06
50774;BME280;36745;48.544;8.918;2022-09-14T00:57:49;96436.69;;;18.66;82.34
50774;BME280;36745;48.544;8.918;2022-09-14T01:01:12;96433.41;;;18.67;82.09
50774;BME280;36745;48.544;8.918;2022-09-14T01:04:34;96458.53;;;18.67;82.67
50774;BME280;36745;48.544;8.918;2022-09-14T01:08:24;96459.22;;;18.73;82.71
50774;BME280;36745;48.544;8.918;2022-09-14T01:19:25;96393.81;;;18.63;83.69
50774;BME280;36745;48.544;8.918;2022-09-14T01:22:57;96394.31;;;18.67;85.07
50774;BME280;36745;48.544;8.918;2022-09-14T01:30:10;96427.06;;;18.61;85.70
50774;BME280;36745;48.544;8.918;2022-09-14T01:33:36;96418.16;;;18.63;84.81
50774;BME280;36745;48.544;8.918;2022-09-14T01:37:05;96429.63;;;18.59;86.26
50774;BME280;36745;48.544;8.918;2022-09-14T01:40:38;96468.69;;;18.59;86.22
50774;BME280;36745;48.544;8.918;2022-09-14T01:44:11;96448.16;;;18.62;86.01
50774;BME280;36745;48.544;8.918;2022-09-14T01:47:41;96446.63;;;18.61;86.18
50774;BME280;36745;48.544;8.918;2022-09-14T01:51:10;96463.59;;;18.63;86.44
50774;BME280;36745;48.544;8.918;2022-09-14T01:54:41;96463.09;;;18.65;86.40
50774;BME280;36745;48.544;8.918;2022-09-14T01:58:11;96448.63;;;18.66;86.35
50774;BME280;36745;48.544;8.918;2022-09-14T02:01:36;96445.56;;;18.64;87.42
50774;BME280;36745;48.544;8.918;2022-09-14T02:05:08;96448.63;;;18.66;87.66
50774;BME280;36745;48.544;8.918;2022-09-14T02:08:30;96453.16;;;18.69;87.39
50774;BME280;36745;48.544;8.918;2022-09-14T02:11:54;96455.72;;;18.67;88.05
50774;BME280;36745;48.544;8.918;2022-09-14T02:15:20;96464.59;;;18.71;88.35
50774;BME280;36745;48.544;8.918;2022-09-14T02:18:42;96451.09;;;18.75;89.66
50774;BME280;36745;48.544;8.918;2022-09-14T02:22:04;96455.16;;;18.74;89.51
50774;BME280;36745;48.544;8.918;2022-09-14T02:25:25;96456.38;;;18.84;89.04
50774;BME280;36745;48.544;8.918;2022-09-14T02:28:47;96447.53;;;18.80;90.37
50774;BME280;36745;48.544;8.918;2022-09-14T02:32:30;96439.41;;;18.82;90.46
50774;BME280;36745;48.544;8.918;2022-09-14T02:36:00;96455.88;;;18.86;90.70
50774;BME280;36745;48.544;8.918;2022-09-14T02:47:16;96461.41;;;18.92;91.51
50774;BME280;36745;48.544;8.918;2022-09-14T02:50:43;96467.47;;;18.96;91.30
50774;BME280;36745;48.544;8.918;2022-09-14T02:54:17;96461.91;;;18.96;91.71
50774;BME280;36745;48.544;8.918;2022-09-14T02:58:06;96453.50;;;18.96;91.88
50774;BME280;36745;48.544;8.918;2022-09-14T03:01:28;96435.00;;;18.93;91.89
50774;BME280;36745;48.544;8.918;2022-09-14T03:04:50;96436.53;;;18.94;92.65
50774;BME280;36745;48.544;8.918;2022-09-14T03:08:11;96440.84;;;18.95;92.45
50774;BME280;36745;48.544;8.918;2022-09-14T03:11:32;96415.47;;;18.93;92.94
50774;BME280;36745;48.544;8.918;2022-09-14T03:14:54;96415.47;;;18.93;93.17
50774;BME280;36745;48.544;8.918;2022-09-14T03:18:15;96422.56;;;18.94;93.30
50774;BME280;36745;48.544;8.918;2022-09-14T03:21:38;96418.78;;;18.91;93.97
50774;BME280;36745;48.544;8.918;2022-09-14T03:24:59;96422.56;;;18.94;93.65
50774;BME280;36745;48.544;8.918;2022-09-14T03:28:21;96423.59;;;18.91;94.43
50774;BME280;36745;48.544;8.918;2022-09-14T03:31:43;96418.00;;;18.91;94.08
50774;BME280;36745;48.544;8.918;2022-09-14T03:35:05;96415.00;;;18.89;93.84
50774;BME280;36745;48.544;8.918;2022-09-14T03:38:26;96401.81;;;18.83;93.77
50774;BME280;36745;48.544;8.918;2022-09-14T03:41:50;96406.69;;;18.77;94.54
50774;BME280;36745;48.544;8.918;2022-09-14T03:45:12;96403.63;;;18.75;94.51
50774;BME280;36745;48.544;8.918;2022-09-14T03:48:34;96390.16;;;18.79;93.99
50774;BME280;36745;48.544;8.918;2022-09-14T03:51:55;96400.59;;;18.73;94.87
50774;BME280;36745;48.544;8.918;2022-09-14T03:55:16;96382.09;;;18.70;95.17
50774;BME280;36745;48.544;8.918;2022-09-14T03:58:39;96380.09;;;18.65;95.33
50774;BME280;36745;48.544;8.918;2022-09-14T04:02:00;96378.88;;;18.61;95.51
50774;BME280;36745;48.544;8.918;2022-09-14T04:05:22;96377.63;;;18.56;95.42
50774;BME280;36745;48.544;8.918;2022-09-14T04:08:44;96363.41;;;18.54;95.53
50774;BME280;36745;48.544;8.918;2022-09-14T04:12:06;96372.81;;;18.51;96.01
50774;BME280;36745;48.544;8.918;2022-09-14T04:15:27;96379.91;;;18.46;96.41
50774;BME280;36745;48.544;8.918;2022-09-14T04:18:48;96382.19;;;18.48;95.94
50774;BME280;36745;48.544;8.918;2022-09-14T04:22:10;96378.66;;;18.42;96.88
50774;BME280;36745;48.544;8.918;2022-09-14T04:25:31;96384.25;;;18.42;97.11
50774;BME280;36745;48.544;8.918;2022-09-14T04:28:52;96395.41;;;18.42;97.50
50774;BME280;36745;48.544;8.918;2022-09-14T04:32:15;96395.41;;;18.42;97.59
50774;BME280;36745;48.544;8.918;2022-09-14T04:35:37;96396.94;;;18.43;97.86
50774;BME280;36745;48.544;8.918;2022-09-14T04:38:59;96397.41;;;18.47;97.74
50774;BME280;36745;48.544;8.918;2022-09-14T04:42:21;96411.38;;;18.47;97.97
50774;BME280;36745;48.544;8.918;2022-09-14T04:45:42;96407.81;;;18.46;97.89
50774;BME280;36745;48.544;8.918;2022-09-14T04:49:04;96404.53;;;18.48;97.83
50774;BME280;36745;48.544;8.918;2022-09-14T04:52:26;96410.09;;;18.48;98.47
50774;BME280;36745;48.544;8.918;2022-09-14T04:55:47;96391.59;;;18.51;98.20
50774;BME280;36745;48.544;8.918;2022-09-14T04:59:09;96393.84;;;18.52;98.21
50774;BME280;36745;48.544;8.918;2022-09-14T05:02:31;96397.41;;;18.47;99.07
50774;BME280;36745;48.544;8.918;2022-09-14T05:05:52;96410.09;;;18.48;98.88
50774;BME280;36745;48.544;8.918;2022-09-14T05:09:15;96405.00;;;18.52;98.17
50774;BME280;36745;48.544;8.918;2022-09-14T05:12:36;96397.19;;;18.45;98.62
50774;BME280;36745;48.544;8.918;2022-09-14T05:16:15;96406.31;;;18.45;98.63
50774;BME280;36745;48.544;8.918;2022-09-14T05:19:36;96404.53;;;18.48;98.70
50774;BME280;36745;48.544;8.918;2022-09-14T05:22:57;96397.16;;;18.51;99.40
50774;BME280;36745;48.544;8.918;2022-09-14T05:26:19;96400.94;;;18.53;99.90
50774;BME280;36745;48.544;8.918;2022-09-14T05:29:40;96406.03;;;18.55;99.66
50774;BME280;36745;48.544;8.918;2022-09-14T05:33:02;96399.97;;;18.56;99.76
50774;BME280;36745;48.544;8.918;2022-09-14T05:36:24;96402.97;;;18.58;99.96
50774;BME280;36745;48.544;8.918;2022-09-14T05:39:45;96398.16;;;18.59;100.00
50774;BME280;36745;48.544;8.918;2022-09-14T05:43:07;96385.47;;;18.58;100.00
50774;BME280;36745;48.544;8.918;2022-09-14T05:46:28;96389.28;;;18.60;100.00
50774;BME280;36745;48.544;8.918;2022-09-14T05:49:49;96393.59;;;18.61;100.00
50774;BME280;36745;48.544;8.918;2022-09-14T05:53:10;96391.25;;;18.65;100.00
50774;BME280;36745;48.544;8.918;2022-09-14T05:56:32;96383.63;;;18.71;100.00
50774;BME280;36745;48.544;8.918;2022-09-14T05:59:53;96385.63;;;18.76;100.00
50774;BME280;36745;48.544;8.918;2022-09-14T06:03:14;96397.50;;;18.82;100.00
50774;BME280;36745;48.544;8.918;2022-09-14T06:06:36;96413.69;;;18.90;100.00
50774;BME280;36745;48.544;8.918;2022-09-14T06:09:57;96407.34;;;18.95;100.00
50774;BME280;36745;48.544;8.918;2022-09-14T06:13:18;96407.81;;;18.99;100.00
50774;BME280;36745;48.544;8.918;2022-09-14T06:16:39;96406.75;;;19.02;100.00
50774;BME280;36745;48.544;8.918;2022-09-14T06:20:01;96418.41;;;19.06;100.00
50774;BME280;36745;48.544;8.918;2022-09-14T06:23:23;96424.50;;;19.10;100.00
50774;BME280;36745;48.544;8.918;2022-09-14T06:26:44;96411.50;;;19.12;100.00
50774;BME280;36745;48.544;8.918;2022-09-14T06:30:06;96411.47;;;19.18;100.00
50774;BME280;36745;48.544;8.918;2022-09-14T06:33:27;96408.63;;;19.23;100.00
50774;BME280;36745;48.544;8.918;2022-09-14T06:36:48;96398.16;;;19.29;100.00
50774;BME280;36745;48.544;8.918;2022-09-14T06:40:10;96398.38;;;19.37;100.00
50774;BME280;36745;48.544;8.918;2022-09-14T06:43:34;96407.47;;;19.43;100.00
50774;BME280;36745;48.544;8.918;2022-09-14T06:46:56;96398.75;;;19.52;100.00
50774;BME280;36745;48.544;8.918;2022-09-14T06:50:17;96406.59;;;19.59;100.00
50774;BME280;36745;48.544;8.918;2022-09-14T06:53:39;96399.13;;;19.67;100.00
50774;BME280;36745;48.544;8.918;2022-09-14T06:57:00;96403.59;;;19.76;100.00
50774;BME280;36745;48.544;8.918;2022-09-14T07:00:21;96404.03;;;19.86;100.00
50774;BME280;36745;48.544;8.918;2022-09-14T07:03:43;96417.19;;;19.91;100.00
50774;BME280;36745;48.544;8.918;2022-09-14T07:07:04;96427.28;;;19.99;100.00
50774;BME280;36745;48.544;8.918;2022-09-14T07:10:26;96417.53;;;20.06;100.00
50774;BME280;36745;48.544;8.918;2022-09-14T07:13:48;96424.59;;;20.13;100.00
50774;BME280;36745;48.544;8.918;2022-09-14T07:17:09;96426.56;;;20.18;100.00
50774;BME280;36745;48.544;8.918;2022-09-14T07:20:32;96429.31;;;20.23;100.00
50774;BME280;36745;48.544;8.918;2022-09-14T07:23:54;96433.53;;;20.30;100.00
50774;BME280;36745;48.544;8.918;2022-09-14T07:27:15;96434.56;;;20.32;100.00
50774;BME280;36745;48.544;8.918;2022-09-14T07:30:37;96438.63;;;20.31;100.00
50774;BME280;36745;48.544;8.918;2022-09-14T07:34:00;96446.22;;;20.36;100.00
50774;BME280;36745;48.544;8.918;2022-09-14T07:37:23;96450.66;;;20.50;100.00
50774;BME280;36745;48.544;8.918;2022-09-14T07:40:44;96447.22;;;20.58;100.00
50774;BME280;36745;48.544;8.918;2022-09-14T07:44:07;96456.09;;;20.62;100.00
50774;BME280;36745;48.544;8.918;2022-09-14T07:47:28;96453.69;;;20.71;100.00
50774;BME280;36745;48.544;8.918;2022-09-14T07:51:05;96459.66;;;20.81;100.00
50774;BME280;36745;48.544;8.918;2022-09-14T07:54:26;96454.16;;;20.94;100.00
50774;BME280;36745;48.544;8.918;2022-09-14T07:57:48;96439.88;;;21.11;100.00
50774;BME280;36745;48.544;8.918;2022-09-14T08:01:12;96435.78;;;21.30;100.00
50774;BME280;36745;48.544;8.918;2022-09-14T08:04:34;96440.91;;;21.45;100.00
50774;BME280;36745;48.544;8.918;2022-09-14T08:07:56;96447.09;;;21.57;100.00
50774;BME280;36745;48.544;8.918;2022-09-14T08:11:20;96455.19;;;21.60;100.00
50774;BME280;36745;48.544;8.918;2022-09-14T08:14:41;96478.47;;;21.55;100.00
50774;BME280;36745;48.544;8.918;2022-09-14T08:18:02;96498.19;;;21.50;100.00
50774;BME280;36745;48.544;8.918;2022-09-14T08:21:25;96495.66;;;21.65;100.00
50774;BME280;36745;48.544;8.918;2022-09-14T08:24:47;96499.34;;;21.73;100.00
50774;BME280;36745;48.544;8.918;2022-09-14T08:28:08;96496.22;;;21.76;100.00
50774;BME280;36745;48.544;8.918;2022-09-14T08:31:33;96492.22;;;21.72;100.00
50774;BME280;36745;48.544;8.918;2022-09-14T08:34:58;96491.47;;;21.71;99.77
50774;BME280;36745;48.544;8.918;2022-09-14T08:38:20;96502.09;;;21.60;99.19
50774;BME280;36745;48.544;8.918;2022-09-14T08:45:04;96492.94;;;21.91;99.33
50774;BME280;36745;48.544;8.918;2022-09-14T08:48:31;96488.97;;;22.00;99.48
50774;BME280;36745;48.544;8.918;2022-09-14T08:51:55;96493.97;;;22.20;98.82
50774;BME280;36745;48.544;8.918;2022-09-14T09:02:58;96488.25;;;22.39;95.39
50774;BME280;36745;48.544;8.918;2022-09-14T09:06:35;96495.81;;;22.57;93.99
50774;BME280;36745;48.544;8.918;2022-09-14T09:10:03;96498.88;;;22.72;93.58
50774;BME280;36745;48.544;8.918;2022-09-14T09:13:29;96499.38;;;22.84;93.77
50774;BME280;36745;48.544;8.918;2022-09-14T09:16:54;96497.09;;;22.95;93.74
50774;BME280;36745;48.544;8.918;2022-09-14T09:20:23;96498.16;;;23.06;92.95
50774;BME280;36745;48.544;8.918;2022-09-14T09:23:46;96483.84;;;23.17;91.48
50774;BME280;36745;48.544;8.918;2022-09-14T09:27:11;96475.00;;;23.13;90.53
50774;BME280;36745;48.544;8.918;2022-09-14T09:30:33;96459.59;;;23.27;91.15
50774;BME280;36745;48.544;8.918;2022-09-14T09:33:54;96453.47;;;23.49;90.31
50774;BME280;36745;48.544;8.918;2022-09-14T09:37:18;96449.75;;;23.54;89.57
50774;BME280;36745;48.544;8.918;2022-09-14T09:40:44;96454.97;;;23.50;89.68
50774;BME280;36745;48.544;8.918;2022-09-14T09:44:07;96452.22;;;23.37;89.26
50774;BME280;36745;48.544;8.918;2022-09-14T09:51:14;96434.44;;;23.42;88.65
50774;BME280;36745;48.544;8.918;2022-09-14T09:54:37;96440.16;;;23.70;88.93
50774;BME280;36745;48.544;8.918;2022-09-14T09:58:29;96436.75;;;23.93;88.53
50774;BME280;36745;48.544;8.918;2022-09-14T10:01:53;96428.38;;;24.00;86.46
50774;BME280;36745;48.544;8.918;2022-09-14T10:05:23;96423.00;;;24.10;86.08
50774;BME280;36745;48.544;8.918;2022-09-14T10:08:46;96409.84;;;24.05;84.04
50774;BME280;36745;48.544;8.918;2022-09-14T10:12:23;96403.19;;;23.95;83.04
50774;BME280;36745;48.544;8.918;2022-09-14T10:15:45;96387.91;;;23.82;82.63
50774;BME280;36745;48.544;8.918;2022-09-14T10:19:16;96386.25;;;23.87;83.41
50774;BME280;36745;48.544;8.918;2022-09-14T10:22:40;96385.16;;;23.90;82.30
50774;BME280;36745;48.544;8.918;2022-09-14T10:29:38;96379.41;;;24.03;82.29
50774;BME280;36745;48.544;8.918;2022-09-14T10:33:04;96378.06;;;23.97;81.65
50774;BME280;36745;48.544;8.918;2022-09-14T10:36:36;96373.94;;;23.98;80.87
50774;BME280;36745;48.544;8.918;2022-09-14T10:40:12;96360.75;;;23.93;80.93
50774;BME280;36745;48.544;8.918;2022-09-14T10:54:41;96326.88;;;24.06;78.02
50774;BME280;36745;48.544;8.918;2022-09-14T11:02:36;96334.31;;;24.24;76.76
50774;BME280;36745;48.544;8.918;2022-09-14T11:06:10;96331.50;;;24.24;75.66
50774;BME280;36745;48.544;8.918;2022-09-14T11:10:05;96320.97;;;24.24;75.11
50774;BME280;36745;48.544;8.918;2022-09-14T11:13:32;96331.31;;;24.22;73.13
50774;BME280;36745;48.544;8.918;2022-09-14T11:24:24;96324.09;;;24.13;72.71
50774;BME280;36745;48.544;8.918;2022-09-14T11:31:24;96324.28;;;24.15;72.03
50774;BME280;36745;48.544;8.918;2022-09-14T11:34:50;96320.34;;;24.11;71.48
50774;BME280;36745;48.544;8.918;2022-09-14T11:38:19;96319.19;;;24.06;71.38
50774;BME280;36745;48.544;8.918;2022-09-14T11:41:53;96316.91;;;24.05;71.26
50774;BME280;36745;48.544;8.918;2022-09-14T11:45:33;96314.25;;;23.99;71.63
50774;BME280;36745;48.544;8.918;2022-09-14T11:52:36;96315.72;;;23.93;70.62
50774;BME280;36745;48.544;8.918;2022-09-14T11:55:57;96308.41;;;23.90;70.32
50774;BME280;36745;48.544;8.918;2022-09-14T12:03:19;96322.50;;;23.97;70.88
50774;BME280;36745;48.544;8.918;2022-09-14T12:06:59;96320.66;;;24.00;71.19
50774;BME280;36745;48.544;8.918;2022-09-14T12:10:20;96337.75;;;24.02;71.09
50774;BME280;36745;48.544;8.918;2022-09-14T12:13:42;96349.91;;;23.97;71.00
50774;BME280;36745;48.544;8.918;2022-09-14T12:20:42;96363.97;;;23.68;71.39
50774;BME280;36745;48.544;8.918;2022-09-14T12:24:13;96370.31;;;23.61;71.61
50774;BME280;36745;48.544;8.918;2022-09-14T12:27:37;96378.97;;;23.63;73.34
50774;BME280;36745;48.544;8.918;2022-09-14T12:34:20;96408.81;;;23.46;74.61
50774;BME280;36745;48.544;8.918;2022-09-14T12:37:42;96413.03;;;23.39;74.31
50774;BME280;36745;48.544;8.918;2022-09-14T12:44:36;96440.13;;;23.29;76.34
50774;BME280;36745;48.544;8.918;2022-09-14T12:47:58;96450.56;;;23.08;76.11
50774;BME280;36745;48.544;8.918;2022-09-14T12:58:26;96447.44;;;22.11;78.63
50774;BME280;36745;48.544;8.918;2022-09-14T13:05:19;96438.09;;;21.90;79.88
50774;BME280;36745;48.544;8.918;2022-09-14T13:08:49;96446.53;;;21.90;80.61
50774;BME280;36745;48.544;8.918;2022-09-14T13:12:14;96444.09;;;21.81;81.14
50774;BME280;36745;48.544;8.918;2022-09-14T13:15:55;96446.22;;;21.62;81.44
50774;BME280;36745;48.544;8.918;2022-09-14T13:19:25;96434.78;;;21.60;82.17
50774;BME280;36745;48.544;8.918;2022-09-14T13:22:47;96411.91;;;21.56;82.10
50774;BME280;36745;48.544;8.918;2022-09-14T13:26:10;96410.09;;;21.58;81.92
50774;BME280;36745;48.544;8.918;2022-09-14T13:29:32;96407.19;;;21.64;82.34
50774;BME280;36745;48.544;8.918;2022-09-14T13:32:55;96418.84;;;21.68;82.95
50774;BME280;36745;48.544;8.918;2022-09-14T13:36:19;96423.28;;;21.63;83.09
50774;BME280;36745;48.544;8.918;2022-09-14T13:39:50;96426.84;;;21.64;83.03
50774;BME280;36745;48.544;8.918;2022-09-14T13:43:12;96419.19;;;21.64;83.50
50774;BME280;36745;48.544;8.918;2022-09-14T13:46:33;96415.81;;;21.66;83.97
50774;BME280;36745;48.544;8.918;2022-09-14T13:49:55;96404.50;;;21.71;84.19
50774;BME280;36745;48.544;8.918;2022-09-14T13:53:46;96400.94;;;21.71;84.29
50774;BME280;36745;48.544;8.918;2022-09-14T13:57:17;96398.25;;;21.78;84.71
50774;BME280;36745;48.544;8.918;2022-09-14T14:04:37;96395.66;;;21.67;84.48
50774;BME280;36745;48.544;8.918;2022-09-14T14:08:00;96391.44;;;21.61;84.57
50774;BME280;36745;48.544;8.918;2022-09-14T14:11:31;96398.75;;;21.51;84.81
50774;BME280;36745;48.544;8.918;2022-09-14T14:15:41;96392.75;;;21.28;85.16
50774;BME280;36745;48.544;8.918;2022-09-14T14:18:54;96412.78;;;21.19;85.60
50774;BME280;36745;48.544;8.918;2022-09-14T14:25:47;96443.09;;;20.83;84.97
50774;BME280;36745;48.544;8.918;2022-09-14T14:29:09;96458.34;;;20.63;85.33
50774;BME280;36745;48.544;8.918;2022-09-14T14:32:30;96457.00;;;20.51;85.08
50774;BME280;36745;48.544;8.918;2022-09-14T14:35:52;96446.69;;;20.40;85.46
50774;BME280;36745;48.544;8.918;2022-09-14T14:39:20;96439.88;;;20.30;86.07
50774;BME280;36745;48.544;8.918;2022-09-14T14:42:42;96420.59;;;20.27;86.23
50774;BME280;36745;48.544;8.918;2022-09-14T14:46:05;96430.41;;;20.15;86.03
50774;BME280;36745;48.544;8.918;2022-09-14T14:49:27;96426.38;;;20.10;86.24
50774;BME280;36745;48.544;8.918;2022-09-14T14:52:49;96418.00;;;20.10;86.24
50774;BME280;36745;48.544;8.918;2022-09-14T14:56:12;96417.53;;;20.06;86.40
50774;BME280;36745;48.544;8.918;2022-09-14T14:59:33;96411.00;;;19.98;86.24
50774;BME280;36745;48.544;8.918;2022-09-14T15:02:55;96407.28;;;19.90;86.43
50774;BME280;36745;48.544;8.918;2022-09-14T15:06:21;96413.25;;;19.81;87.71
50774;BME280;36745;48.544;8.918;2022-09-14T15:09:43;96409.63;;;19.86;88.69
50774;BME280;36745;48.544;8.918;2022-09-14T15:13:06;96417.19;;;19.91;89.09
50774;BME280;36745;48.544;8.918;2022-09-14T15:16:28;96409.50;;;19.97;89.52
50774;BME280;36745;48.544;8.918;2022-09-14T15:19:49;96403.84;;;20.02;88.77
50774;BME280;36745;48.544;8.918;2022-09-14T15:23:12;96399.22;;;20.05;88.82
50774;BME280;36745;48.544;8.918;2022-09-14T15:26:34;96400.75;;;20.06;88.70
50774;BME280;36745;48.544;8.918;2022-09-14T15:29:56;96379.06;;;20.12;88.59
50774;BME280;36745;48.544;8.918;2022-09-14T15:33:18;96364.94;;;20.23;89.08
50774;BME280;36745;48.544;8.918;2022-09-14T15:36:43;96346.97;;;20.37;89.36
50774;BME280;36745;48.544;8.918;2022-09-14T15:40:08;96336.75;;;20.40;88.67
50774;BME280;36745;48.544;8.918;2022-09-14T15:43:29;96341.13;;;20.35;88.79
50774;BME280;36745;48.544;8.918;2022-09-14T15:46:51;96332.72;;;20.35;89.14
50774;BME280;36745;48.544;8.918;2022-09-14T15:50:13;96330.72;;;20.30;89.44
50774;BME280;36745;48.544;8.918;2022-09-14T15:53:36;96320.28;;;20.31;89.28
50774;BME280;36745;48.544;8.918;2022-09-14T15:56:57;96318.56;;;20.28;89.77
50774;BME280;36745;48.544;8.918;2022-09-14T16:00:20;96309.41;;;20.27;89.46
50774;BME280;36745;48.544;8.918;2022-09-14T16:03:41;96316.38;;;20.21;89.88
50774;BME280;36745;48.544;8.918;2022-09-14T16:07:03;96291.69;;;20.19;89.50
50774;BME280;36745;48.544;8.918;2022-09-14T16:10:29;96279.31;;;20.15;89.77
50774;BME280;36745;48.544;8.918;2022-09-14T16:13:51;96268.81;;;20.02;89.80
50774;BME280;36745;48.544;8.918;2022-09-14T16:17:12;96272.38;;;20.02;90.00
50774;BME280;36745;48.544;8.918;2022-09-14T16:20:34;96283.56;;;20.02;90.07
50774;BME280;36745;48.544;8.918;2022-09-14T16:24:04;96292.16;;;20.04;89.84
50774;BME280;36745;48.544;8.918;2022-09-14T16:27:26;96286.03;;;20.06;89.97
50774;BME280;36745;48.544;8.918;2022-09-14T16:30:47;96281.28;;;20.01;90.00
50774;BME280;36745;48.544;8.918;2022-09-14T16:34:18;96295.47;;;20.03;90.24
50774;BME280;36745;48.544;8.918;2022-09-14T16:37:40;96298.81;;;20.01;90.12
50774;BME280;36745;48.544;8.918;2022-09-14T16:41:02;96305.19;;;20.02;89.72
50774;BME280;36745;48.544;8.918;2022-09-14T16:44:25;96310.09;;;19.96;89.66
50774;BME280;36745;48.544;8.918;2022-09-14T16:47:46;96301.25;;;19.92;89.76
50774;BME280;36745;48.544;8.918;2022-09-14T16:51:11;96299.03;;;19.85;90.04
50774;BME280;36745;48.544;8.918;2022-09-14T16:54:33;96298.19;;;19.90;89.88
50774;BME280;36745;48.544;8.918;2022-09-14T16:57:54;96298.66;;;19.94;90.29
50774;BME280;36745;48.544;8.918;2022-09-14T17:01:30;96296.31;;;19.98;90.78
50774;BME280;36745;48.544;8.918;2022-09-14T17:04:51;96292.03;;;19.97;90.57
50774;BME280;36745;48.544;8.918;2022-09-14T17:08:13;96303.22;;;19.97;90.60
50774;BME280;36745;48.544;8.918;2022-09-14T17:11:36;96309.38;;;19.90;90.78
50774;BME280;36745;48.544;8.918;2022-09-14T17:14:58;96306.97;;;19.81;90.92
50774;BME280;36745;48.544;8.918;2022-09-14T17:18:22;96296.38;;;19.74;91.70
50774;BME280;36745;48.544;8.918;2022-09-14T17:21:44;96304.81;;;19.68;92.07
50774;BME280;36745;48.544;8.918;2022-09-14T17:25:06;96309.94;;;19.64;92.07
50774;BME280;36745;48.544;8.918;2022-09-14T17:28:28;96313.84;;;19.55;92.56
50774;BME280;36745;48.544;8.918;2022-09-14T17:31:49;96307.53;;;19.49;92.70
50774;BME280;36745;48.544;8.918;2022-09-14T17:35:11;96307.38;;;19.42;93.04
50774;BME280;36745;48.544;8.918;2022-09-14T17:38:34;96320.13;;;19.37;93.08
50774;BME280;36745;48.544;8.918;2022-09-14T17:41:56;96319.16;;;19.29;93.55
50774;BME280;36745;48.544;8.918;2022-09-14T17:45:17;96315.66;;;19.23;93.81
50774;BME280;36745;48.544;8.918;2022-09-14T17:48:40;96316.97;;;19.16;93.81
50774;BME280;36745;48.544;8.918;2022-09-14T17:52:01;96322.41;;;19.09;94.32
50774;BME280;36745;48.544;8.918;2022-09-14T17:55:23;96328.56;;;19.02;94.33
50774;BME280;36745;48.544;8.918;2022-09-14T17:58:44;96331.34;;;19.02;94.45
50774;BME280;36745;48.544;8.918;2022-09-14T18:02:06;96344.84;;;18.98;94.68
50774;BME280;36745;48.544;8.918;2022-09-14T18:05:27;96345.69;;;18.87;95.13
50774;BME280;36745;48.544;8.918;2022-09-14T18:08:53;96340.41;;;18.83;94.98
50774;BME280;36745;48.544;8.918;2022-09-14T18:12:14;96331.00;;;18.81;94.91
50774;BME280;36745;48.544;8.918;2022-09-14T18:15:37;96332.81;;;18.78;94.87
50774;BME280;36745;48.544;8.918;2022-09-14T18:18:59;96330.06;;;18.73;95.13
50774;BME280;36745;48.544;8.918;2022-09-14T18:22:20;96333.84;;;18.75;94.92
50774;BME280;36745;48.544;8.918;2022-09-14T18:25:41;96325.94;;;18.79;94.46
50774;BME280;36745;48.544;8.918;2022-09-14T18:29:03;96333.84;;;18.75;95.13
50774;BME280;36745;48.544;8.918;2022-09-14T18:32:25;96327.06;;;18.65;95.94
50774;BME280;36745;48.544;8.918;2022-09-14T18:35:46;96341.03;;;18.65;96.15
50774;BME280;36745;48.544;8.918;2022-09-14T18:39:12;96342.28;;;18.64;96.33
50774;BME280;36745;48.544;8.918;2022-09-14T18:42:33;96341.56;;;18.58;96.57
50774;BME280;36745;48.544;8.918;2022-09-14T18:45:54;96335.22;;;18.58;96.84
50774;BME280;36745;48.544;8.918;2022-09-14T18:49:16;96344.13;;;18.56;97.21
50774;BME280;36745;48.544;8.918;2022-09-14T18:52:38;96350.97;;;18.55;97.42
50774;BME280;36745;48.544;8.918;2022-09-14T18:56:03;96357.56;;;18.52;97.54
50774;BME280;36745;48.544;8.918;2022-09-14T18:59:25;96357.56;;;18.52;97.61
50774;BME280;36745;48.544;8.918;2022-09-14T19:02:51;96359.09;;;18.48;97.74
50774;BME280;36745;48.544;8.918;2022-09-14T19:06:15;96346.72;;;18.43;97.96
50774;BME280;36745;48.544;8.918;2022-09-14T19:09:36;96350.75;;;18.42;98.06
50774;BME280;36745;48.544;8.918;2022-09-14T19:12:57;96353.81;;;18.44;97.97
50774;BME280;36745;48.544;8.918;2022-09-14T19:16:19;96357.88;;;18.43;98.11
50774;BME280;36745;48.544;8.918;2022-09-14T19:19:40;96350.28;;;18.38;98.35
50774;BME280;36745;48.544;8.918;2022-09-14T19:23:01;96349.06;;;18.33;98.40
50774;BME280;36745;48.544;8.918;2022-09-14T19:26:23;96350.81;;;18.31;98.24
50774;BME280;36745;48.544;8.918;2022-09-14T19:29:44;96357.72;;;18.24;98.45
50774;BME280;36745;48.544;8.918;2022-09-14T19:33:05;96359.03;;;18.18;98.61
50774;BME280;36745;48.544;8.918;2022-09-14T19:36:27;96359.81;;;18.13;98.81
50774;BME280;36745;48.544;8.918;2022-09-14T19:39:49;96365.88;;;18.11;98.80